Aeroporto :
LOGIN :

Iscrizione | Disclaimer

   EN    FR    IT 

 










Sommario :    VFR   VFR Marginale   IFR   IFR Intensivo   IFR Molto Intensivo
Visibilità : 
Base nubi : 
>= 8 km
>= 3000ft
5 / 8 km
1000 / 3000 ft
1500m / 5 km
500 / 1000 ft
800 / 1500m
200 / 500 ft
< 800m
< 200 ft
Simboli :   Temporali  Nebbia  Neve Forte  Precipitazioni Forti  Vento > 20 kt
SIGMETs :   Varie  Temporali  Ghiacco  Turbolenza  Onda orograficha  Ceneri Vulcaniche






- Altitudine del aeroporto : 44 ft
- Codice IATA : SOU


EGHI - Southampton

ULTIMO METAR :
  • 060950Z 23015KT 200V270 9999 BKN009 13/11 Q1007

METARs OBSOLETI :
  • 060920Z 23012KT 190V260 9999 -DZ BKN009 13/11 Q1007
  • 060850Z 23013KT 5000 -RADZ BKN008 12/11 Q1007
  • 060820Z 22016KT 190V260 5000 -RADZ BKN008 12/11 Q1007
  • 060750Z 22015G26KT 190V250 8000 -DZ BKN010 12/11 Q1007
  • 060720Z 22017KT 190V260 6000 -RADZ BKN007 12/11 Q1008

TAF TAF EGHI
Valido dal 06 a 09 ore il 06 a 18 ore UTC


060759Z 0609/0618 22012KT 9999 BKN012
TEMPO 0609/0612 24016G26KT 6000 BKN008
PROB40
TEMPO 0609/0612 4000 RADZ BKN004
BECMG 0612/0614 SCT020
PROB40
TEMPO 0612/0617 24016G26KT
TEMPO 0615/0617 7000 SHRA
PROB30
TEMPO 0615/0617 4000 +SHRA BKN014
ATIS : +44 23 8062 7103



MetMap, La meteo Aeronautica in un colpo d'occhio ! - Copyright ORBIFLY Dicembre 2007 - Disclaimer

ORBIFLY MET'MAP TEAM :

Programmazione e sviluppo : Alexandra Zaïnal
Concezione : Baudouin d'Aumeries
Aiuto per la programmazione : Marc-Olivier Méhu
Supporto tecnico e logistico : Manuel Goepfert
Aiuto per la traduzione : Arnaldo La Scala

Contatto : metmap@orbifly.com




FONTI E CREDITI :

   NOAA